sensor_id;sensor_type;location;lat;lon;timestamp;pressure;altitude;pressure_sealevel;temperature;humidity
25869;BME280;13688;53.154;18.136;2023-02-18T00:03:03;99862.44;;;6.55;61.63
25869;BME280;13688;53.154;18.136;2023-02-18T00:08:26;99825.33;;;6.64;60.94
25869;BME280;13688;53.154;18.136;2023-02-18T00:13:49;99813.43;;;6.56;60.96
25869;BME280;13688;53.154;18.136;2023-02-18T00:19:16;99864.63;;;6.50;61.31
25869;BME280;13688;53.154;18.136;2023-02-18T00:24:38;99850.66;;;6.47;62.15
25869;BME280;13688;53.154;18.136;2023-02-18T00:30:01;99871.61;;;6.40;62.95
25869;BME280;13688;53.154;18.136;2023-02-18T00:35:23;99880.97;;;6.46;63.10
25869;BME280;13688;53.154;18.136;2023-02-18T00:40:46;99875.69;;;6.33;63.67
25869;BME280;13688;53.154;18.136;2023-02-18T00:46:08;99907.84;;;6.31;63.86
25869;BME280;13688;53.154;18.136;2023-02-18T00:51:33;99896.94;;;6.35;63.59
25869;BME280;13688;53.154;18.136;2023-02-18T00:56:56;99913.48;;;6.40;62.62
25869;BME280;13688;53.154;18.136;2023-02-18T01:02:18;99898.55;;;6.37;62.41
25869;BME280;13688;53.154;18.136;2023-02-18T01:07:40;99910.84;;;6.27;62.69
25869;BME280;13688;53.154;18.136;2023-02-18T01:13:02;99877.86;;;6.28;62.16
25869;BME280;13688;53.154;18.136;2023-02-18T01:18:26;99884.38;;;6.24;61.57
25869;BME280;13688;53.154;18.136;2023-02-18T01:23:48;99910.22;;;6.23;60.89
25869;BME280;13688;53.154;18.136;2023-02-18T01:29:11;99935.14;;;6.11;61.27
25869;BME280;13688;53.154;18.136;2023-02-18T01:34:33;99927.86;;;6.13;60.78
25869;BME280;13688;53.154;18.136;2023-02-18T01:39:56;99934.83;;;6.03;61.05
25869;BME280;13688;53.154;18.136;2023-02-18T01:45:44;99934.52;;;5.95;61.26
25869;BME280;13688;53.154;18.136;2023-02-18T01:51:25;99922.98;;;5.94;60.80
25869;BME280;13688;53.154;18.136;2023-02-18T01:57:00;99956.81;;;5.81;61.18
25869;BME280;13688;53.154;18.136;2023-02-18T02:02:29;99935.45;;;5.68;61.62
25869;BME280;13688;53.154;18.136;2023-02-18T02:07:55;99989.77;;;5.67;61.50
25869;BME280;13688;53.154;18.136;2023-02-18T02:13:43;99941.24;;;5.62;61.07
25869;BME280;13688;53.154;18.136;2023-02-18T02:31:13;99948.70;;;5.32;62.37
25869;BME280;13688;53.154;18.136;2023-02-18T02:36:39;99953.97;;;5.06;63.28
25869;BME280;13688;53.154;18.136;2023-02-18T02:53:47;99947.57;;;5.09;63.18
25869;BME280;13688;53.154;18.136;2023-02-18T02:59:24;99978.80;;;5.07;63.67
25869;BME280;13688;53.154;18.136;2023-02-18T03:22:15;99956.54;;;5.21;63.07
25869;BME280;13688;53.154;18.136;2023-02-18T03:27:49;99970.25;;;5.02;63.76
25869;BME280;13688;53.154;18.136;2023-02-18T03:33:26;99977.70;;;4.97;64.42
25869;BME280;13688;53.154;18.136;2023-02-18T03:38:58;99963.87;;;5.04;64.45
25869;BME280;13688;53.154;18.136;2023-02-18T03:44:26;99979.80;;;4.92;64.84
25869;BME280;13688;53.154;18.136;2023-02-18T03:49:48;99938.20;;;5.03;65.07
25869;BME280;13688;53.154;18.136;2023-02-18T03:55:11;99993.08;;;5.06;64.86
25869;BME280;13688;53.154;18.136;2023-02-18T04:00:33;99995.00;;;5.04;65.12
25869;BME280;13688;53.154;18.136;2023-02-18T04:05:56;100000.97;;;5.07;65.22
25869;BME280;13688;53.154;18.136;2023-02-18T04:11:19;100011.13;;;5.15;64.96
25869;BME280;13688;53.154;18.136;2023-02-18T04:16:41;100006.19;;;5.09;64.74
25869;BME280;13688;53.154;18.136;2023-02-18T04:22:03;100013.23;;;5.10;64.40
25869;BME280;13688;53.154;18.136;2023-02-18T04:27:25;100011.48;;;4.96;64.78
25869;BME280;13688;53.154;18.136;2023-02-18T04:32:48;100041.33;;;5.01;63.79
25869;BME280;13688;53.154;18.136;2023-02-18T04:38:11;100018.30;;;5.00;63.38
25869;BME280;13688;53.154;18.136;2023-02-18T04:43:34;100044.31;;;4.97;63.05
25869;BME280;13688;53.154;18.136;2023-02-18T04:48:56;100030.98;;;4.97;62.69
25869;BME280;13688;53.154;18.136;2023-02-18T04:54:18;100005.20;;;4.97;62.21
25869;BME280;13688;53.154;18.136;2023-02-18T04:59:41;100017.77;;;4.95;62.28
25869;BME280;13688;53.154;18.136;2023-02-18T05:05:03;100041.00;;;4.93;62.29
25869;BME280;13688;53.154;18.136;2023-02-18T05:10:26;100042.24;;;4.87;62.21
25869;BME280;13688;53.154;18.136;2023-02-18T05:15:49;100052.43;;;4.81;62.40
25869;BME280;13688;53.154;18.136;2023-02-18T05:21:12;100075.00;;;4.75;62.48
25869;BME280;13688;53.154;18.136;2023-02-18T05:26:34;100059.56;;;4.80;62.52
25869;BME280;13688;53.154;18.136;2023-02-18T05:31:56;100084.97;;;4.86;62.31
25869;BME280;13688;53.154;18.136;2023-02-18T05:37:19;100063.86;;;4.83;62.21
25869;BME280;13688;53.154;18.136;2023-02-18T05:42:41;100084.13;;;4.71;62.64
25869;BME280;13688;53.154;18.136;2023-02-18T05:48:03;100076.61;;;4.78;61.92
25869;BME280;13688;53.154;18.136;2023-02-18T05:53:25;100100.78;;;4.75;62.00
25869;BME280;13688;53.154;18.136;2023-02-18T05:58:48;100099.52;;;4.80;61.66
25869;BME280;13688;53.154;18.136;2023-02-18T06:04:10;100094.67;;;4.73;61.81
25869;BME280;13688;53.154;18.136;2023-02-18T06:09:33;100105.63;;;4.68;62.09
25869;BME280;13688;53.154;18.136;2023-02-18T06:14:56;100112.59;;;4.56;62.75
25869;BME280;13688;53.154;18.136;2023-02-18T06:20:18;100159.76;;;4.54;62.99
25869;BME280;13688;53.154;18.136;2023-02-18T06:25:40;100117.33;;;4.51;63.12
25869;BME280;13688;53.154;18.136;2023-02-18T06:31:04;100132.36;;;4.67;63.02
25869;BME280;13688;53.154;18.136;2023-02-18T06:36:27;100151.47;;;4.59;62.94
25869;BME280;13688;53.154;18.136;2023-02-18T06:41:49;100142.63;;;4.58;63.06
25869;BME280;13688;53.154;18.136;2023-02-18T06:47:11;100178.00;;;4.60;63.08
25869;BME280;13688;53.154;18.136;2023-02-18T06:52:34;100157.18;;;4.67;62.92
25869;BME280;13688;53.154;18.136;2023-02-18T06:57:56;100180.09;;;4.70;62.75
25869;BME280;13688;53.154;18.136;2023-02-18T07:03:19;100194.16;;;4.72;62.94
25869;BME280;13688;53.154;18.136;2023-02-18T07:08:42;100162.89;;;4.75;62.81
25869;BME280;13688;53.154;18.136;2023-02-18T07:14:04;100151.28;;;4.76;62.60
25869;BME280;13688;53.154;18.136;2023-02-18T07:19:26;100161.36;;;4.85;62.34
25869;BME280;13688;53.154;18.136;2023-02-18T07:24:51;100176.56;;;4.98;61.98
25869;BME280;13688;53.154;18.136;2023-02-18T07:30:14;100184.34;;;5.01;61.95
25869;BME280;13688;53.154;18.136;2023-02-18T07:35:37;100170.27;;;4.99;61.97
25869;BME280;13688;53.154;18.136;2023-02-18T07:41:00;100175.81;;;4.96;62.20
25869;BME280;13688;53.154;18.136;2023-02-18T07:46:23;100202.92;;;5.02;61.84
25869;BME280;13688;53.154;18.136;2023-02-18T07:51:48;100163.98;;;5.14;61.60
25869;BME280;13688;53.154;18.136;2023-02-18T07:57:12;100174.91;;;5.24;61.49
25869;BME280;13688;53.154;18.136;2023-02-18T08:02:35;100162.71;;;5.20;61.20
25869;BME280;13688;53.154;18.136;2023-02-18T08:07:58;100201.73;;;5.21;61.10
25869;BME280;13688;53.154;18.136;2023-02-18T08:13:21;100154.17;;;5.14;61.47
25869;BME280;13688;53.154;18.136;2023-02-18T08:18:44;100163.30;;;5.10;61.92
25869;BME280;13688;53.154;18.136;2023-02-18T08:24:06;100169.63;;;5.36;61.81
25869;BME280;13688;53.154;18.136;2023-02-18T08:29:29;100213.23;;;5.35;61.45
25869;BME280;13688;53.154;18.136;2023-02-18T08:34:52;100193.88;;;5.46;61.20
25869;BME280;13688;53.154;18.136;2023-02-18T08:40:16;100198.08;;;5.50;60.82
25869;BME280;13688;53.154;18.136;2023-02-18T08:45:38;100197.63;;;5.70;61.13
25869;BME280;13688;53.154;18.136;2023-02-18T08:51:10;100187.45;;;5.63;60.61
25869;BME280;13688;53.154;18.136;2023-02-18T08:56:31;100194.03;;;5.57;60.55
25869;BME280;13688;53.154;18.136;2023-02-18T09:01:54;100232.11;;;5.59;60.86
25869;BME280;13688;53.154;18.136;2023-02-18T09:07:17;100228.16;;;5.52;60.81
25869;BME280;13688;53.154;18.136;2023-02-18T09:12:39;100231.78;;;5.51;60.74
25869;BME280;13688;53.154;18.136;2023-02-18T09:18:02;100216.11;;;5.59;60.66
25869;BME280;13688;53.154;18.136;2023-02-18T09:23:25;100255.94;;;5.62;60.48
25869;BME280;13688;53.154;18.136;2023-02-18T09:28:49;100268.31;;;5.63;60.06
25869;BME280;13688;53.154;18.136;2023-02-18T09:34:12;100270.23;;;5.61;59.91
25869;BME280;13688;53.154;18.136;2023-02-18T09:39:36;100260.00;;;5.68;60.36
25869;BME280;13688;53.154;18.136;2023-02-18T09:45:01;100249.59;;;5.78;60.11
25869;BME280;13688;53.154;18.136;2023-02-18T09:50:31;100277.44;;;5.73;59.71
25869;BME280;13688;53.154;18.136;2023-02-18T09:55:56;100252.83;;;5.83;59.80
25869;BME280;13688;53.154;18.136;2023-02-18T10:01:27;100266.55;;;5.77;60.41
25869;BME280;13688;53.154;18.136;2023-02-18T10:06:44;100246.48;;;5.71;61.17
25869;BME280;13688;53.154;18.136;2023-02-18T10:12:12;100248.24;;;5.85;61.77
25869;BME280;13688;53.154;18.136;2023-02-18T10:17:36;100273.39;;;5.95;61.96
25869;BME280;13688;53.154;18.136;2023-02-18T10:23:00;100248.03;;;5.88;61.76
25869;BME280;13688;53.154;18.136;2023-02-18T10:28:26;100241.08;;;5.99;61.85
25869;BME280;13688;53.154;18.136;2023-02-18T10:51:11;100201.23;;;6.62;60.79
25869;BME280;13688;53.154;18.136;2023-02-18T10:56:48;100211.58;;;6.28;61.15
25869;BME280;13688;53.154;18.136;2023-02-18T11:02:22;100216.25;;;6.24;61.88
25869;BME280;13688;53.154;18.136;2023-02-18T11:07:47;100194.82;;;6.39;61.93
25869;BME280;13688;53.154;18.136;2023-02-18T11:13:16;100220.75;;;6.37;62.65
25869;BME280;13688;53.154;18.136;2023-02-18T11:18:46;100207.02;;;6.68;63.08
25869;BME280;13688;53.154;18.136;2023-02-18T11:24:17;100179.42;;;6.55;62.31
25869;BME280;13688;53.154;18.136;2023-02-18T11:29:37;100207.39;;;6.24;63.36
25869;BME280;13688;53.154;18.136;2023-02-18T11:35:01;100181.53;;;6.12;64.39
25869;BME280;13688;53.154;18.136;2023-02-18T11:40:35;100168.94;;;6.26;64.24
25869;BME280;13688;53.154;18.136;2023-02-18T11:46:19;100160.00;;;6.40;64.03
25869;BME280;13688;53.154;18.136;2023-02-18T11:51:44;100194.27;;;6.34;63.32
25869;BME280;13688;53.154;18.136;2023-02-18T11:57:11;100171.09;;;6.21;63.27
25869;BME280;13688;53.154;18.136;2023-02-18T12:02:36;100183.70;;;6.32;63.08
25869;BME280;13688;53.154;18.136;2023-02-18T12:08:04;100136.93;;;6.39;62.39
25869;BME280;13688;53.154;18.136;2023-02-18T12:13:36;100139.79;;;6.36;61.65
25869;BME280;13688;53.154;18.136;2023-02-18T12:25:02;100142.80;;;6.31;62.55
25869;BME280;13688;53.154;18.136;2023-02-18T12:31:04;100147.06;;;6.21;62.79
25869;BME280;13688;53.154;18.136;2023-02-18T12:37:19;100129.53;;;6.17;63.13
25869;BME280;13688;53.154;18.136;2023-02-18T12:48:25;100126.12;;;6.15;62.30
25869;BME280;13688;53.154;18.136;2023-02-18T12:54:16;100131.56;;;6.14;62.20
25869;BME280;13688;53.154;18.136;2023-02-18T13:06:02;100111.17;;;6.13;61.91
25869;BME280;13688;53.154;18.136;2023-02-18T13:17:16;100084.59;;;6.11;62.04
25869;BME280;13688;53.154;18.136;2023-02-18T13:22:40;100080.00;;;6.13;62.06
25869;BME280;13688;53.154;18.136;2023-02-18T13:39:51;100050.00;;;6.22;62.27
25869;BME280;13688;53.154;18.136;2023-02-18T13:45:24;100055.96;;;6.26;62.04
25869;BME280;13688;53.154;18.136;2023-02-18T13:50:48;100040.80;;;6.26;61.98
25869;BME280;13688;53.154;18.136;2023-02-18T13:56:26;100035.45;;;6.26;61.99
25869;BME280;13688;53.154;18.136;2023-02-18T14:01:54;100056.53;;;6.18;61.86
25869;BME280;13688;53.154;18.136;2023-02-18T14:13:22;100045.66;;;5.56;66.67
25869;BME280;13688;53.154;18.136;2023-02-18T14:18:57;100040.94;;;5.47;67.35
25869;BME280;13688;53.154;18.136;2023-02-18T14:24:41;100044.73;;;5.30;68.50
25869;BME280;13688;53.154;18.136;2023-02-18T14:29:50;100038.26;;;4.80;72.13
25869;BME280;13688;53.154;18.136;2023-02-18T14:35:39;100069.16;;;4.27;75.88
25869;BME280;13688;53.154;18.136;2023-02-18T14:52:59;100056.77;;;3.39;86.30
25869;BME280;13688;53.154;18.136;2023-02-18T15:03:54;100058.70;;;3.22;90.30
25869;BME280;13688;53.154;18.136;2023-02-18T15:09:20;100064.11;;;3.20;91.25
25869;BME280;13688;53.154;18.136;2023-02-18T15:14:46;100066.06;;;3.16;92.26
25869;BME280;13688;53.154;18.136;2023-02-18T15:20:11;100094.42;;;3.16;93.02
25869;BME280;13688;53.154;18.136;2023-02-18T15:25:33;100068.39;;;3.07;93.34
25869;BME280;13688;53.154;18.136;2023-02-18T15:30:58;100078.44;;;3.02;93.15
25869;BME280;13688;53.154;18.136;2023-02-18T15:36:24;100070.56;;;3.00;92.82
25869;BME280;13688;53.154;18.136;2023-02-18T15:41:51;100046.05;;;2.95;92.57
25869;BME280;13688;53.154;18.136;2023-02-18T15:47:13;100046.91;;;2.96;92.26
25869;BME280;13688;53.154;18.136;2023-02-18T15:52:38;100048.80;;;2.94;92.00
25869;BME280;13688;53.154;18.136;2023-02-18T15:58:02;100052.59;;;2.90;92.11
25869;BME280;13688;53.154;18.136;2023-02-18T16:03:54;100048.38;;;2.85;92.32
25869;BME280;13688;53.154;18.136;2023-02-18T16:09:14;100080.33;;;2.84;92.58
25869;BME280;13688;53.154;18.136;2023-02-18T16:14:46;100081.45;;;2.80;92.95
25869;BME280;13688;53.154;18.136;2023-02-18T16:25:48;100086.23;;;2.73;93.33
25869;BME280;13688;53.154;18.136;2023-02-18T16:31:10;100091.78;;;2.69;93.27
25869;BME280;13688;53.154;18.136;2023-02-18T16:36:33;100080.40;;;2.67;93.20
25869;BME280;13688;53.154;18.136;2023-02-18T16:42:13;100070.82;;;2.64;93.17
25869;BME280;13688;53.154;18.136;2023-02-18T16:47:39;100071.67;;;2.65;93.06
25869;BME280;13688;53.154;18.136;2023-02-18T16:53:02;100090.16;;;2.66;92.99
25869;BME280;13688;53.154;18.136;2023-02-18T16:58:27;100083.14;;;2.65;92.87
25869;BME280;13688;53.154;18.136;2023-02-18T17:03:50;100085.98;;;2.62;92.93
25869;BME280;13688;53.154;18.136;2023-02-18T17:09:22;100097.45;;;2.63;93.01
25869;BME280;13688;53.154;18.136;2023-02-18T17:14:45;100101.99;;;2.61;93.00
25869;BME280;13688;53.154;18.136;2023-02-18T17:20:09;100106.41;;;2.60;93.02
25869;BME280;13688;53.154;18.136;2023-02-18T17:25:38;100100.34;;;2.58;92.93
25869;BME280;13688;53.154;18.136;2023-02-18T17:31:01;100106.50;;;2.58;92.91
25869;BME280;13688;53.154;18.136;2023-02-18T17:36:26;100116.44;;;2.55;93.03
25869;BME280;13688;53.154;18.136;2023-02-18T17:41:50;100136.91;;;2.53;93.43
25869;BME280;13688;53.154;18.136;2023-02-18T17:47:13;100123.02;;;2.48;93.94
25869;BME280;13688;53.154;18.136;2023-02-18T17:52:36;100146.30;;;2.43;94.44
25869;BME280;13688;53.154;18.136;2023-02-18T17:57:58;100157.99;;;2.39;95.02
25869;BME280;13688;53.154;18.136;2023-02-18T18:03:21;100185.77;;;2.32;95.55
25869;BME280;13688;53.154;18.136;2023-02-18T18:08:44;100186.97;;;2.26;96.18
25869;BME280;13688;53.154;18.136;2023-02-18T18:14:08;100191.72;;;2.19;96.81
25869;BME280;13688;53.154;18.136;2023-02-18T18:19:31;100199.16;;;2.13;97.43
25869;BME280;13688;53.154;18.136;2023-02-18T18:24:54;100205.63;;;2.07;98.01
25869;BME280;13688;53.154;18.136;2023-02-18T18:30:19;100210.37;;;2.00;98.59
25869;BME280;13688;53.154;18.136;2023-02-18T18:35:47;100212.15;;;1.83;99.08
25869;BME280;13688;53.154;18.136;2023-02-18T18:41:17;100212.92;;;1.67;99.76
25869;BME280;13688;53.154;18.136;2023-02-18T18:46:40;100212.44;;;1.59;100.00
25869;BME280;13688;53.154;18.136;2023-02-18T18:52:03;100222.39;;;1.54;100.00
25869;BME280;13688;53.154;18.136;2023-02-18T18:57:27;100236.36;;;1.58;100.00
25869;BME280;13688;53.154;18.136;2023-02-18T19:02:51;100251.66;;;1.70;100.00
25869;BME280;13688;53.154;18.136;2023-02-18T19:08:15;100257.20;;;1.83;100.00
25869;BME280;13688;53.154;18.136;2023-02-18T19:13:38;100273.47;;;1.94;100.00
25869;BME280;13688;53.154;18.136;2023-02-18T19:19:01;100266.13;;;1.99;100.00
25869;BME280;13688;53.154;18.136;2023-02-18T19:24:25;100278.16;;;2.06;100.00
25869;BME280;13688;53.154;18.136;2023-02-18T19:29:47;100284.08;;;2.11;100.00
25869;BME280;13688;53.154;18.136;2023-02-18T19:35:10;100283.78;;;2.17;100.00
25869;BME280;13688;53.154;18.136;2023-02-18T19:40:35;100288.06;;;2.20;100.00
25869;BME280;13688;53.154;18.136;2023-02-18T19:45:58;100283.48;;;2.23;100.00
25869;BME280;13688;53.154;18.136;2023-02-18T19:51:25;100291.20;;;2.28;99.69
25869;BME280;13688;53.154;18.136;2023-02-18T19:56:48;100303.44;;;2.30;98.03
25869;BME280;13688;53.154;18.136;2023-02-18T20:02:13;100320.08;;;2.34;96.57
25869;BME280;13688;53.154;18.136;2023-02-18T20:07:44;100314.70;;;2.36;95.47
25869;BME280;13688;53.154;18.136;2023-02-18T20:13:07;100311.87;;;2.39;94.57
25869;BME280;13688;53.154;18.136;2023-02-18T20:18:29;100302.97;;;2.40;93.66
25869;BME280;13688;53.154;18.136;2023-02-18T20:23:53;100314.45;;;2.40;92.93
25869;BME280;13688;53.154;18.136;2023-02-18T20:29:15;100313.59;;;2.40;92.41
25869;BME280;13688;53.154;18.136;2023-02-18T20:34:39;100322.48;;;2.39;92.12
25869;BME280;13688;53.154;18.136;2023-02-18T20:40:01;100329.92;;;2.32;91.92
25869;BME280;13688;53.154;18.136;2023-02-18T20:45:25;100332.48;;;2.34;91.70
25869;BME280;13688;53.154;18.136;2023-02-18T20:50:47;100343.88;;;2.36;91.39
25869;BME280;13688;53.154;18.136;2023-02-18T20:56:10;100350.60;;;2.43;90.79
25869;BME280;13688;53.154;18.136;2023-02-18T21:01:35;100356.77;;;2.43;89.84
25869;BME280;13688;53.154;18.136;2023-02-18T21:06:58;100376.59;;;2.53;88.94
25869;BME280;13688;53.154;18.136;2023-02-18T21:12:20;100386.19;;;2.56;87.70
25869;BME280;13688;53.154;18.136;2023-02-18T21:17:42;100385.09;;;2.60;86.72
25869;BME280;13688;53.154;18.136;2023-02-18T21:23:05;100398.15;;;2.65;85.85
25869;BME280;13688;53.154;18.136;2023-02-18T21:28:28;100395.41;;;2.66;85.24
25869;BME280;13688;53.154;18.136;2023-02-18T21:33:50;100386.59;;;2.66;85.00
25869;BME280;13688;53.154;18.136;2023-02-18T21:39:14;100394.47;;;2.67;85.10
25869;BME280;13688;53.154;18.136;2023-02-18T21:44:37;100399.17;;;2.62;85.30
25869;BME280;13688;53.154;18.136;2023-02-18T21:50:03;100379.78;;;2.60;85.69
25869;BME280;13688;53.154;18.136;2023-02-18T21:55:25;100392.89;;;2.46;86.11
25869;BME280;13688;53.154;18.136;2023-02-18T22:00:54;100399.34;;;2.40;86.73
25869;BME280;13688;53.154;18.136;2023-02-18T22:06:13;100408.61;;;2.32;87.30
25869;BME280;13688;53.154;18.136;2023-02-18T22:11:36;100405.34;;;2.26;87.96
25869;BME280;13688;53.154;18.136;2023-02-18T22:16:58;100417.83;;;2.24;88.66
25869;BME280;13688;53.154;18.136;2023-02-18T22:22:21;100406.90;;;2.30;89.27
25869;BME280;13688;53.154;18.136;2023-02-18T22:27:43;100410.36;;;2.33;89.57
25869;BME280;13688;53.154;18.136;2023-02-18T22:33:06;100426.56;;;2.26;89.65
25869;BME280;13688;53.154;18.136;2023-02-18T22:38:28;100420.16;;;2.30;89.84
25869;BME280;13688;53.154;18.136;2023-02-18T22:43:52;100425.70;;;2.26;89.94
25869;BME280;13688;53.154;18.136;2023-02-18T22:49:17;100428.36;;;2.26;90.08
25869;BME280;13688;53.154;18.136;2023-02-18T22:54:39;100440.11;;;2.20;90.23
25869;BME280;13688;53.154;18.136;2023-02-18T23:00:06;100433.68;;;2.07;90.63
25869;BME280;13688;53.154;18.136;2023-02-18T23:05:29;100442.22;;;1.95;91.29
25869;BME280;13688;53.154;18.136;2023-02-18T23:11:10;100436.26;;;1.90;92.21
25869;BME280;13688;53.154;18.136;2023-02-18T23:16:25;100441.86;;;1.84;93.08
25869;BME280;13688;53.154;18.136;2023-02-18T23:22:05;100426.73;;;1.86;93.96
25869;BME280;13688;53.154;18.136;2023-02-18T23:27:28;100452.31;;;1.87;94.66
25869;BME280;13688;53.154;18.136;2023-02-18T23:32:50;100444.02;;;1.94;95.10
25869;BME280;13688;53.154;18.136;2023-02-18T23:38:13;100450.09;;;1.96;95.19
25869;BME280;13688;53.154;18.136;2023-02-18T23:43:36;100449.16;;;1.97;95.09
25869;BME280;13688;53.154;18.136;2023-02-18T23:48:59;100446.44;;;1.99;94.80
25869;BME280;13688;53.154;18.136;2023-02-18T23:54:23;100446.28;;;2.02;94.36
25869;BME280;13688;53.154;18.136;2023-02-18T23:59:45;100434.81;;;2.01;93.83
